Time;durP1;ratioP1;P1;durP2;ratioP2;P2;SDS_P1;SDS_P2;PMS_P1;PMS_P2;Temp;Humidity;BMP_temperature;BMP_pressure;BME280_temperature;BME280_humidity;BME280_pressure;Samples;Min_cycle;Max_cycle;Signal;HPM_P1;HPM_P2
2023/09/07 00:02:21;;;;;;;8.80;7.90;;;22.00;91.70;;;;;;5032286;28;20034;-54
2023/09/07 00:05:07;;;;;;;9.07;7.97;;;21.90;92.00;;;;;;5031680;28;20401;-57
2023/09/07 00:07:53;;;;;;;10.52;7.82;;;21.90;92.00;;;;;;5017350;28;20187;-54
2023/09/07 00:10:39;;;;;;;8.93;7.70;;;21.90;92.10;;;;;;5031610;28;20021;-52
2023/09/07 00:13:25;;;;;;;8.93;8.02;;;21.90;92.30;;;;;;5017613;28;20056;-59
2023/09/07 00:16:11;;;;;;;9.57;7.70;;;21.90;92.40;;;;;;5018244;28;20123;-51
2023/09/07 00:18:57;;;;;;;10.02;8.15;;;21.90;92.50;;;;;;5031711;28;20109;-54
2023/09/07 00:21:43;;;;;;;11.57;7.97;;;21.90;92.60;;;;;;5031778;28;20041;-50
2023/09/07 00:24:31;;;;;;;9.25;8.13;;;21.80;92.70;;;;;;5012905;28;20041;-54
2023/09/07 00:27:17;;;;;;;9.60;8.60;;;21.70;92.90;;;;;;5012671;28;20176;-51
2023/09/07 00:30:08;;;;;;;9.15;8.15;;;21.70;93.10;;;;;;5010908;28;20038;-53
2023/09/07 00:32:54;;;;;;;10.20;8.13;;;21.70;93.30;;;;;;5012902;28;20052;-56
2023/09/07 00:35:40;;;;;;;9.68;8.68;;;21.60;93.30;;;;;;5010916;28;20108;-55
2023/09/07 00:38:26;;;;;;;9.52;8.52;;;21.60;93.60;;;;;;5015480;28;20032;-55
2023/09/07 00:41:14;;;;;;;9.30;8.35;;;21.50;93.80;;;;;;5019668;28;20113;-55
2023/09/07 00:44:00;;;;;;;10.52;8.32;;;21.40;94.00;;;;;;5017826;28;20102;-56
2023/09/07 00:46:46;;;;;;;9.38;8.38;;;21.40;94.20;;;;;;5031968;28;20082;-58
2023/09/07 00:49:32;;;;;;;9.35;8.35;;;21.30;94.30;;;;;;5007611;28;20030;-54
2023/09/07 00:52:19;;;;;;;10.90;8.45;;;21.40;94.40;;;;;;5010521;28;20489;-54
2023/09/07 00:55:05;;;;;;;9.93;8.93;;;21.40;94.40;;;;;;5010373;28;20038;-55
2023/09/07 00:57:51;;;;;;;10.73;8.43;;;21.30;94.40;;;;;;5010240;28;20033;-57
2023/09/07 01:00:37;;;;;;;10.82;8.88;;;21.30;94.60;;;;;;4997072;28;20033;-56
2023/09/07 01:03:23;;;;;;;9.45;8.60;;;21.30;94.60;;;;;;5009725;28;20034;-56
2023/09/07 01:06:25;;;;;;;9.05;8.15;;;21.30;94.80;;;;;;5010375;28;20033;-52
2023/09/07 01:09:17;;;;;;;9.90;8.90;;;21.20;94.80;;;;;;5010815;28;20505;-56
2023/09/07 01:12:03;;;;;;;10.63;9.60;;;21.20;94.70;;;;;;5009830;28;20107;-56
2023/09/07 01:14:49;;;;;;;11.68;8.70;;;21.10;94.70;;;;;;5010448;28;20561;-54
2023/09/07 01:17:37;;;;;;;9.32;8.40;;;20.90;95.30;;;;;;5028501;28;20034;-56
2023/09/07 01:20:24;;;;;;;10.85;9.75;;;20.70;95.40;;;;;;5029575;28;20091;-55
2023/09/07 01:23:11;;;;;;;10.50;9.27;;;20.60;95.50;;;;;;5029804;28;20036;-56
2023/09/07 01:25:58;;;;;;;10.18;8.98;;;20.50;95.80;;;;;;5032353;28;20561;-52
2023/09/07 01:28:44;;;;;;;9.88;8.98;;;20.40;95.60;;;;;;5029354;28;20079;-51
2023/09/07 01:31:29;;;;;;;12.05;9.90;;;20.30;96.10;;;;;;5031415;28;20037;-54
2023/09/07 01:34:15;;;;;;;9.60;8.60;;;20.30;96.30;;;;;;5030414;28;20060;-54
2023/09/07 01:37:01;;;;;;;12.07;9.27;;;20.40;96.60;;;;;;5030297;28;20032;-57
2023/09/07 01:39:48;;;;;;;11.73;9.30;;;20.40;96.50;;;;;;5030594;28;20121;-53
2023/09/07 01:42:34;;;;;;;9.80;8.80;;;20.40;96.70;;;;;;5030956;28;20379;-55
2023/09/07 01:45:22;;;;;;;10.77;8.48;;;20.40;96.80;;;;;;5032105;28;20182;-55
2023/09/07 01:48:12;;;;;;;10.13;9.15;;;20.40;96.90;;;;;;5030477;28;20030;-56
2023/09/07 01:50:58;;;;;;;10.27;9.10;;;20.40;97.10;;;;;;5031513;28;20052;-53
2023/09/07 01:53:46;;;;;;;10.50;9.40;;;20.40;97.20;;;;;;5030136;28;20501;-54
2023/09/07 01:56:32;;;;;;;9.80;8.80;;;20.40;97.30;;;;;;5031392;28;20026;-56
2023/09/07 01:59:18;;;;;;;9.65;8.65;;;20.40;97.50;;;;;;5030029;28;20084;-54
2023/09/07 02:02:04;;;;;;;9.75;8.75;;;20.40;97.50;;;;;;5030892;28;20113;-52
2023/09/07 02:04:50;;;;;;;10.25;8.90;;;20.50;97.60;;;;;;5030171;28;20033;-51
2023/09/07 02:07:36;;;;;;;10.02;9.02;;;20.40;97.70;;;;;;5029929;28;20553;-51
2023/09/07 02:10:22;;;;;;;9.90;8.90;;;20.40;97.80;;;;;;5030258;28;20061;-53
2023/09/07 02:13:08;;;;;;;9.30;8.40;;;20.40;97.90;;;;;;5030250;28;20112;-57
2023/09/07 02:15:53;;;;;;;10.93;9.13;;;20.40;98.20;;;;;;5030221;28;20028;-56
2023/09/07 02:18:43;;;;;;;10.45;9.45;;;20.40;98.40;;;;;;5029616;28;20080;-57
2023/09/07 02:21:29;;;;;;;10.63;8.80;;;20.30;98.20;;;;;;5030767;28;20498;-53
2023/09/07 02:24:15;;;;;;;10.52;8.88;;;20.20;98.40;;;;;;5033413;28;20044;-53
2023/09/07 02:27:01;;;;;;;11.20;9.70;;;20.10;98.50;;;;;;5033530;28;20081;-55
2023/09/07 02:29:46;;;;;;;10.23;8.85;;;20.10;98.70;;;;;;5025810;28;20080;-56
2023/09/07 02:32:33;;;;;;;9.90;8.82;;;20.20;98.50;;;;;;5014824;28;20028;-53
2023/09/07 02:35:19;;;;;;;11.25;9.57;;;20.20;98.50;;;;;;4999798;28;20030;-56
2023/09/07 02:38:05;;;;;;;10.75;9.65;;;20.10;98.50;;;;;;5014729;28;20490;-56
2023/09/07 02:40:50;;;;;;;11.35;8.82;;;20.00;98.60;;;;;;5014406;28;20417;-56
2023/09/07 02:43:36;;;;;;;13.15;10.50;;;19.90;98.90;;;;;;5014299;28;20517;-56
2023/09/07 02:46:22;;;;;;;56.40;40.90;;;19.80;98.80;;;;;;5014769;28;20030;-57
2023/09/07 02:49:08;;;;;;;56.75;39.42;;;19.80;99.00;;;;;;5013902;28;20549;-57
2023/09/07 02:51:54;;;;;;;21.88;17.17;;;19.70;99.40;;;;;;5014738;28;20101;-57
2023/09/07 02:54:41;;;;;;;15.57;12.98;;;19.60;99.40;;;;;;5014756;28;20034;-56
2023/09/07 02:57:27;;;;;;;11.27;10.02;;;19.60;99.50;;;;;;5014777;28;20026;-52
2023/09/07 03:00:13;;;;;;;12.18;10.18;;;19.60;99.40;;;;;;5014670;28;20026;-51
2023/09/07 03:03:00;;;;;;;15.50;13.15;;;19.60;99.30;;;;;;5014453;28;20026;-52
2023/09/07 03:05:46;;;;;;;12.93;11.60;;;19.40;98.90;;;;;;5013917;28;20049;-57
2023/09/07 03:08:31;;;;;;;12.15;10.95;;;19.40;99.40;;;;;;5013637;28;20018;-53
2023/09/07 03:11:17;;;;;;;12.43;11.13;;;19.40;99.30;;;;;;5014528;28;20048;-57
2023/09/07 03:14:03;;;;;;;11.48;10.27;;;19.30;99.30;;;;;;5014406;28;20026;-55
2023/09/07 03:16:50;;;;;;;12.00;10.75;;;19.20;99.50;;;;;;5014139;28;20022;-56
2023/09/07 03:19:37;;;;;;;14.05;10.27;;;19.20;99.80;;;;;;5013638;28;20555;-53
2023/09/07 03:22:23;;;;;;;11.90;9.95;;;19.10;99.80;;;;;;5000012;28;20409;-55
2023/09/07 03:25:10;;;;;;;12.43;10.18;;;19.10;99.90;;;;;;5013646;28;20121;-54
2023/09/07 03:27:56;;;;;;;12.75;10.43;;;19.20;99.90;;;;;;5012915;28;20060;-56
2023/09/07 03:30:42;;;;;;;13.93;10.70;;;19.20;99.90;;;;;;5000283;28;20049;-55
2023/09/07 03:33:28;;;;;;;11.98;10.77;;;19.20;99.90;;;;;;5013992;28;20033;-55
2023/09/07 03:36:14;;;;;;;12.68;10.27;;;19.20;99.90;;;;;;5013293;28;20026;-56
2023/09/07 03:39:00;;;;;;;12.18;10.55;;;19.10;99.90;;;;;;5014615;28;20239;-55
2023/09/07 03:41:46;;;;;;;13.65;10.57;;;19.10;99.90;;;;;;5013947;28;20026;-56
2023/09/07 03:44:32;;;;;;;12.23;10.98;;;19.10;99.90;;;;;;5013833;28;20022;-57
2023/09/07 03:47:18;;;;;;;12.13;10.82;;;19.10;99.90;;;;;;5013366;28;20033;-57
2023/09/07 03:50:05;;;;;;;13.00;9.82;;;19.20;99.90;;;;;;5013592;28;20030;-52
2023/09/07 03:52:50;;;;;;;11.43;10.30;;;19.20;99.90;;;;;;5013662;28;20108;-54
2023/09/07 03:55:41;;;;;;;11.77;10.57;;;19.30;99.90;;;;;;5013568;28;20026;-56
2023/09/07 03:58:27;;;;;;;11.00;9.90;;;19.30;99.90;;;;;;5013796;28;20038;-56
2023/09/07 04:01:14;;;;;;;11.43;10.20;;;19.30;99.90;;;;;;5013622;28;20037;-57
2023/09/07 04:03:59;;;;;;;11.60;10.40;;;19.30;99.90;;;;;;4999284;28;20076;-55
2023/09/07 04:06:47;;;;;;;13.52;10.15;;;19.30;99.90;;;;;;4998068;28;20032;-52
2023/09/07 04:09:33;;;;;;;11.23;9.80;;;19.30;99.90;;;;;;5013180;28;20461;-56
2023/09/07 04:12:19;;;;;;;12.27;10.38;;;19.20;99.90;;;;;;5013356;28;20033;-53
2023/09/07 04:15:06;;;;;;;13.80;11.10;;;19.20;99.90;;;;;;5013415;28;20026;-57
2023/09/07 04:17:54;;;;;;;13.55;10.32;;;19.20;99.90;;;;;;4998083;28;20026;-56
2023/09/07 04:20:40;;;;;;;14.63;11.52;;;19.20;99.90;;;;;;5013108;28;20510;-53
2023/09/07 04:23:26;;;;;;;12.73;10.93;;;19.20;99.90;;;;;;5013241;28;20069;-52
2023/09/07 04:26:12;;;;;;;16.88;10.63;;;19.20;99.90;;;;;;5012831;28;20403;-53
2023/09/07 04:28:58;;;;;;;13.18;11.77;;;19.10;99.90;;;;;;5013561;28;20044;-51
2023/09/07 04:31:44;;;;;;;12.63;11.32;;;19.20;99.90;;;;;;5013823;28;20457;-58
2023/09/07 04:34:31;;;;;;;12.88;11.57;;;19.20;99.90;;;;;;5013220;28;20034;-57
2023/09/07 04:37:17;;;;;;;11.95;10.75;;;19.20;99.90;;;;;;5011931;28;20552;-53
2023/09/07 04:40:06;;;;;;;13.10;10.25;;;19.10;99.90;;;;;;5012760;28;20452;-56
2023/09/07 04:42:52;;;;;;;13.43;11.85;;;19.00;99.90;;;;;;4998198;28;20029;-55
2023/09/07 04:45:46;;;;;;;14.02;11.35;;;19.00;99.90;;;;;;5012947;28;20113;-55
2023/09/07 04:48:34;;;;;;;12.90;10.90;;;19.00;99.90;;;;;;5011101;28;20034;-56
2023/09/07 04:51:21;;;;;;;13.10;10.88;;;19.00;99.90;;;;;;5012064;28;20108;-51
2023/09/07 04:54:07;;;;;;;14.18;10.65;;;19.10;99.90;;;;;;5011845;28;20108;-55
2023/09/07 04:56:53;;;;;;;12.20;10.27;;;19.20;99.90;;;;;;5012692;28;20029;-55
2023/09/07 04:59:39;;;;;;;12.30;10.52;;;19.20;99.90;;;;;;5012476;28;20045;-56
2023/09/07 05:02:25;;;;;;;12.65;10.85;;;19.10;99.90;;;;;;5012501;28;20516;-55
2023/09/07 05:05:11;;;;;;;11.80;10.60;;;19.10;99.90;;;;;;5011772;28;20532;-56
2023/09/07 05:07:57;;;;;;;14.10;11.23;;;19.10;99.90;;;;;;5012337;28;20026;-56
2023/09/07 05:10:43;;;;;;;16.98;10.82;;;19.10;99.90;;;;;;5012548;28;20026;-59
2023/09/07 05:13:30;;;;;;;14.05;11.50;;;19.20;99.90;;;;;;5012424;28;20026;-54
2023/09/07 05:16:16;;;;;;;15.27;11.20;;;19.20;99.90;;;;;;5012266;28;20033;-55
2023/09/07 05:19:02;;;;;;;11.57;10.23;;;19.30;99.90;;;;;;5012025;28;20112;-60
2023/09/07 05:21:48;;;;;;;11.23;9.77;;;19.30;99.90;;;;;;5012388;28;20038;-57
2023/09/07 05:24:34;;;;;;;12.95;10.95;;;19.40;99.90;;;;;;5011471;28;20025;-57
2023/09/07 05:27:20;;;;;;;13.50;11.98;;;19.40;99.90;;;;;;5011023;28;20539;-54
2023/09/07 05:30:06;;;;;;;17.15;12.07;;;19.30;99.90;;;;;;5012053;28;20026;-56
2023/09/07 05:32:52;;;;;;;11.98;10.60;;;19.30;99.90;;;;;;4997489;28;20481;-57
2023/09/07 05:35:39;;;;;;;13.75;10.75;;;19.30;99.90;;;;;;5011798;28;20513;-58
2023/09/07 05:38:25;;;;;;;41.00;29.67;;;19.30;99.90;;;;;;5011658;28;20041;-56
2023/09/07 05:41:10;;;;;;;42.15;32.00;;;19.30;99.90;;;;;;5011749;28;20058;-54
2023/09/07 05:43:56;;;;;;;28.90;20.80;;;19.40;99.90;;;;;;5011767;28;20022;-54
2023/09/07 05:46:42;;;;;;;21.50;17.02;;;19.40;99.90;;;;;;4997451;28;20026;-58
2023/09/07 05:49:28;;;;;;;18.80;13.43;;;19.50;99.90;;;;;;5011452;28;20041;-56
2023/09/07 05:52:14;;;;;;;16.35;13.98;;;19.50;99.90;;;;;;5011049;28;20022;-56
2023/09/07 05:55:00;;;;;;;16.98;12.73;;;19.50;99.90;;;;;;5011727;28;20506;-56
2023/09/07 05:57:46;;;;;;;15.27;13.77;;;19.60;99.90;;;;;;5012169;28;20466;-57
2023/09/07 06:00:33;;;;;;;14.43;13.13;;;19.70;99.90;;;;;;5015748;28;20033;-57
2023/09/07 06:03:19;;;;;;;14.23;12.73;;;19.60;99.90;;;;;;5015560;28;20030;-57
2023/09/07 06:06:05;;;;;;;13.95;12.18;;;19.60;99.90;;;;;;5015364;28;20394;-57
2023/09/07 06:08:51;;;;;;;14.73;13.20;;;19.60;99.90;;;;;;5015943;28;20494;-56
2023/09/07 06:11:37;;;;;;;15.07;12.32;;;19.60;99.90;;;;;;5015667;28;20038;-56
2023/09/07 06:14:23;;;;;;;13.13;11.90;;;19.70;99.90;;;;;;5015653;28;20395;-56
2023/09/07 06:17:09;;;;;;;14.43;13.00;;;19.70;99.90;;;;;;5015251;28;20026;-58
2023/09/07 06:19:55;;;;;;;14.18;12.75;;;19.80;99.90;;;;;;5015484;28;20444;-59
2023/09/07 06:22:41;;;;;;;15.45;12.65;;;19.90;99.90;;;;;;5015998;28;20038;-58
2023/09/07 06:25:27;;;;;;;19.67;16.85;;;19.90;99.90;;;;;;5015253;28;20022;-57
2023/09/07 06:28:13;;;;;;;23.92;16.58;;;19.90;99.90;;;;;;4999405;28;20112;-57
2023/09/07 06:30:59;;;;;;;17.98;13.57;;;20.00;99.90;;;;;;5014607;28;20038;-57
2023/09/07 06:33:45;;;;;;;13.57;12.18;;;20.10;99.90;;;;;;5014994;28;20076;-55
2023/09/07 06:36:31;;;;;;;15.68;14.07;;;20.20;99.90;;;;;;5014482;28;20122;-56
2023/09/07 06:39:17;;;;;;;13.88;12.38;;;20.30;99.90;;;;;;5015036;28;20425;-56
2023/09/07 06:42:03;;;;;;;15.43;13.27;;;20.40;99.80;;;;;;5014850;28;20030;-57
2023/09/07 06:44:51;;;;;;;13.45;12.25;;;20.60;99.50;;;;;;5014350;28;20026;-57
2023/09/07 06:47:37;;;;;;;21.55;16.40;;;20.70;99.40;;;;;;5013877;28;20026;-55
2023/09/07 06:50:23;;;;;;;24.75;18.38;;;20.80;99.20;;;;;;5014414;28;20048;-57
2023/09/07 06:53:09;;;;;;;22.67;17.95;;;20.90;99.00;;;;;;5014713;28;20076;-57
2023/09/07 06:56:00;;;;;;;18.88;16.52;;;20.90;98.80;;;;;;5015117;28;20058;-59
2023/09/07 06:58:46;;;;;;;16.33;14.40;;;20.90;98.90;;;;;;5014606;28;20025;-56
2023/09/07 07:01:31;;;;;;;15.10;13.50;;;20.90;99.00;;;;;;5014949;28;20041;-55
2023/09/07 07:04:17;;;;;;;16.63;14.10;;;21.00;98.90;;;;;;5014299;28;20066;-56
2023/09/07 07:07:04;;;;;;;16.10;14.40;;;21.00;98.80;;;;;;5000037;28;20032;-56
2023/09/07 07:09:50;;;;;;;14.90;13.40;;;21.10;98.60;;;;;;5013174;28;20026;-57
2023/09/07 07:12:38;;;;;;;15.27;13.45;;;21.10;98.60;;;;;;5013710;28;20026;-57
2023/09/07 07:15:23;;;;;;;15.85;14.05;;;21.00;98.70;;;;;;5014298;28;20347;-56
2023/09/07 07:18:09;;;;;;;14.48;13.10;;;21.00;98.90;;;;;;5013587;28;20022;-57
2023/09/07 07:20:55;;;;;;;15.18;13.68;;;21.10;98.90;;;;;;5013967;28;20490;-57
2023/09/07 07:23:42;;;;;;;16.02;14.40;;;21.10;98.80;;;;;;5014398;28;20065;-59
2023/09/07 07:26:28;;;;;;;16.45;14.40;;;21.20;98.70;;;;;;4999885;28;20097;-53
2023/09/07 07:29:13;;;;;;;18.67;16.52;;;21.20;98.70;;;;;;5013807;28;20025;-55
2023/09/07 07:31:59;;;;;;;17.27;14.98;;;21.10;99.00;;;;;;5013859;28;20109;-61
2023/09/07 07:34:45;;;;;;;17.02;14.93;;;21.10;99.20;;;;;;5013998;28;20032;-59
2023/09/07 07:37:32;;;;;;;18.15;16.33;;;21.10;99.20;;;;;;5013880;28;20383;-56
2023/09/07 07:40:18;;;;;;;22.65;17.15;;;21.10;99.10;;;;;;5014370;28;20033;-58
2023/09/07 07:43:04;;;;;;;16.05;14.35;;;21.20;99.00;;;;;;5012975;28;20022;-55
2023/09/07 07:45:52;;;;;;;16.13;14.25;;;21.20;99.10;;;;;;5013222;28;20029;-55
2023/09/07 07:48:38;;;;;;;16.58;14.25;;;21.40;98.90;;;;;;5013564;28;20398;-59
2023/09/07 07:51:24;;;;;;;17.08;13.52;;;21.50;98.40;;;;;;5013723;28;20068;-57
2023/09/07 07:54:09;;;;;;;15.75;14.13;;;21.60;98.40;;;;;;5013369;28;20153;-55
2023/09/07 07:56:55;;;;;;;16.35;14.10;;;21.70;98.30;;;;;;5013577;28;20517;-56
2023/09/07 07:59:41;;;;;;;16.60;13.07;;;21.80;97.90;;;;;;5013361;28;20578;-54
2023/09/07 08:02:28;;;;;;;15.93;12.70;;;21.90;97.60;;;;;;5013141;28;20084;-53
2023/09/07 08:05:14;;;;;;;14.00;11.98;;;21.90;97.80;;;;;;5012947;28;20030;-57
2023/09/07 08:08:00;;;;;;;13.23;11.88;;;22.00;97.70;;;;;;5012908;28;20026;-56
2023/09/07 08:10:46;;;;;;;14.43;11.65;;;22.10;97.50;;;;;;5013302;28;20490;-56
2023/09/07 08:13:34;;;;;;;14.32;12.25;;;22.10;97.00;;;;;;5013743;28;20453;-57
2023/09/07 08:16:20;;;;;;;12.65;11.45;;;22.30;96.70;;;;;;5013021;28;20030;-58
2023/09/07 08:19:05;;;;;;;13.77;12.25;;;22.30;96.60;;;;;;5012243;28;20025;-55
2023/09/07 08:21:51;;;;;;;14.70;11.43;;;22.40;96.60;;;;;;5012798;28;20042;-55
2023/09/07 08:24:37;;;;;;;11.88;10.68;;;22.50;96.50;;;;;;5012948;28;20030;-55
2023/09/07 08:27:23;;;;;;;13.45;12.05;;;22.60;96.40;;;;;;5012492;28;20022;-57
2023/09/07 08:30:14;;;;;;;13.38;11.98;;;22.70;96.20;;;;;;5012061;28;20437;-57
2023/09/07 08:33:02;;;;;;;13.30;11.98;;;22.70;96.20;;;;;;5012521;28;20117;-56
2023/09/07 08:35:52;;;;;;;13.40;11.95;;;22.80;96.00;;;;;;5012109;28;20109;-55
2023/09/07 08:38:39;;;;;;;15.23;11.52;;;22.90;95.90;;;;;;5012582;28;20022;-55
2023/09/07 08:41:25;;;;;;;13.90;11.93;;;22.90;95.90;;;;;;5011869;28;20030;-54
2023/09/07 08:44:12;;;;;;;13.35;11.77;;;23.00;95.80;;;;;;5013045;28;20628;-53
2023/09/07 08:47:03;;;;;;;13.13;11.85;;;23.10;95.80;;;;;;5012296;28;20034;-54
2023/09/07 08:49:49;;;;;;;15.73;12.38;;;23.10;95.60;;;;;;5012599;28;20041;-57
2023/09/07 08:52:36;;;;;;;12.60;10.55;;;23.10;95.60;;;;;;5012501;28;20105;-56
2023/09/07 08:55:23;;;;;;;13.35;11.10;;;23.10;95.70;;;;;;5012121;28;20062;-55
2023/09/07 08:58:09;;;;;;;13.75;10.70;;;23.30;95.50;;;;;;5012051;28;20137;-55
2023/09/07 09:00:57;;;;;;;12.10;11.00;;;23.40;95.20;;;;;;5011504;28;20398;-57
2023/09/07 09:03:43;;;;;;;15.43;12.75;;;23.50;95.20;;;;;;5012776;28;20022;-55
2023/09/07 09:06:29;;;;;;;11.65;10.52;;;23.60;94.90;;;;;;5011358;28;20065;-55
2023/09/07 09:09:24;;;;;;;12.07;10.70;;;23.70;94.90;;;;;;5011822;28;20036;-52
2023/09/07 09:12:13;;;;;;;11.43;10.23;;;23.70;94.90;;;;;;5012161;28;20030;-54
2023/09/07 09:15:03;;;;;;;11.68;10.43;;;23.80;95.00;;;;;;5012764;28;20509;-51
2023/09/07 09:17:49;;;;;;;13.10;10.95;;;24.00;94.80;;;;;;5010843;28;20114;-57
2023/09/07 09:20:37;;;;;;;14.50;10.68;;;24.10;94.70;;;;;;5011994;28;20026;-56
2023/09/07 09:23:23;;;;;;;10.63;9.70;;;24.10;94.80;;;;;;5012157;28;20129;-58
2023/09/07 09:26:09;;;;;;;11.52;10.43;;;24.30;94.50;;;;;;5011238;28;20033;-58
2023/09/07 09:28:56;;;;;;;10.57;9.57;;;24.40;94.30;;;;;;5011901;28;20441;-57
2023/09/07 09:31:43;;;;;;;13.80;11.55;;;24.40;94.20;;;;;;5011314;28;20033;-55
2023/09/07 09:34:32;;;;;;;12.60;10.65;;;24.40;94.10;;;;;;5011316;28;20139;-59
2023/09/07 09:37:19;;;;;;;10.68;9.52;;;24.50;94.20;;;;;;5012030;28;20029;-52
2023/09/07 09:40:05;;;;;;;13.95;11.20;;;24.50;94.10;;;;;;4997169;28;20029;-54
2023/09/07 09:42:54;;;;;;;10.32;9.32;;;24.60;94.00;;;;;;5012407;28;20105;-59
2023/09/07 09:45:40;;;;;;;13.27;9.90;;;24.60;94.00;;;;;;4997398;28;20034;-55
2023/09/07 09:48:28;;;;;;;12.15;10.50;;;24.80;94.00;;;;;;5011665;28;20516;-58
2023/09/07 09:51:18;;;;;;;12.73;9.52;;;24.90;94.10;;;;;;5010995;28;20122;-56
2023/09/07 09:54:06;;;;;;;11.45;9.18;;;25.20;93.80;;;;;;5011769;28;20022;-58
2023/09/07 09:56:52;;;;;;;11.30;9.90;;;25.20;93.80;;;;;;5010796;28;20018;-56
2023/09/07 09:59:38;;;;;;;12.15;8.85;;;25.30;93.10;;;;;;5011182;28;20453;-54
2023/09/07 10:02:24;;;;;;;11.05;8.63;;;25.40;92.90;;;;;;5010131;28;20102;-58
2023/09/07 10:05:11;;;;;;;10.55;8.80;;;25.50;92.70;;;;;;5011230;28;20034;-53
2023/09/07 10:08:05;;;;;;;10.73;8.80;;;25.60;92.70;;;;;;5009541;28;20046;-51
2023/09/07 10:10:54;;;;;;;9.23;8.32;;;25.70;92.50;;;;;;5010927;28;20065;-54
2023/09/07 10:13:40;;;;;;;11.35;9.35;;;25.80;92.20;;;;;;5010165;28;20080;-57
2023/09/07 10:16:29;;;;;;;8.75;7.90;;;25.80;92.20;;;;;;5010234;28;20022;-56
2023/09/07 10:19:22;;;;;;;10.25;8.07;;;25.80;91.70;;;;;;5010612;28;20078;-53
2023/09/07 10:22:08;;;;;;;13.70;8.25;;;25.90;91.40;;;;;;5010679;28;20405;-57
2023/09/07 10:24:57;;;;;;;10.77;8.02;;;26.00;91.60;;;;;;5010704;28;20041;-55
2023/09/07 10:27:43;;;;;;;8.60;7.70;;;26.10;91.40;;;;;;5010254;28;20029;-56
2023/09/07 10:30:32;;;;;;;8.93;8.02;;;26.20;91.00;;;;;;5010942;28;20148;-53
2023/09/07 10:33:21;;;;;;;9.35;7.60;;;26.30;91.40;;;;;;5009737;28;20394;-57
2023/09/07 10:36:08;;;;;;;11.82;8.07;;;26.30;90.90;;;;;;5011019;28;20037;-53
2023/09/07 10:38:56;;;;;;;8.30;7.50;;;26.40;90.70;;;;;;5010957;28;20037;-56
2023/09/07 10:41:43;;;;;;;9.57;7.57;;;26.50;90.60;;;;;;4997317;28;20493;-53
2023/09/07 10:44:29;;;;;;;9.73;8.35;;;26.50;90.70;;;;;;5011063;28;20088;-51
2023/09/07 10:47:15;;;;;;;8.80;7.85;;;26.50;90.50;;;;;;5013589;28;20030;-56
2023/09/07 10:50:03;;;;;;;11.57;8.05;;;26.70;90.30;;;;;;5013421;28;20030;-52
2023/09/07 10:52:49;;;;;;;11.15;7.82;;;26.80;90.40;;;;;;5014025;28;20038;-56
2023/09/07 10:55:43;;;;;;;10.23;8.60;;;26.90;90.20;;;;;;5014110;28;20514;-55
2023/09/07 10:58:32;;;;;;;9.73;7.95;;;26.90;90.30;;;;;;5033457;28;20037;-52
2023/09/07 11:01:20;;;;;;;9.23;7.80;;;27.00;90.00;;;;;;5032375;28;20034;-60
2023/09/07 11:04:08;;;;;;;9.15;7.75;;;27.00;90.30;;;;;;5033020;28;20404;-59
2023/09/07 11:06:54;;;;;;;9.38;7.70;;;27.00;90.30;;;;;;5032032;28;20083;-59
2023/09/07 11:09:43;;;;;;;13.30;7.13;;;26.90;89.40;;;;;;5032049;28;20024;-58
2023/09/07 11:12:29;;;;;;;9.07;7.47;;;26.90;88.90;;;;;;5033478;28;20018;-60
2023/09/07 11:15:15;;;;;;;7.90;7.00;;;26.90;88.90;;;;;;5030596;28;20136;-61
2023/09/07 11:18:08;;;;;;;11.75;7.60;;;27.00;89.30;;;;;;5034240;28;20038;-55
2023/09/07 11:20:56;;;;;;;8.68;7.78;;;27.10;88.70;;;;;;5034154;28;20060;-60
2023/09/07 11:23:43;;;;;;;10.35;7.43;;;27.20;88.80;;;;;;5028068;28;20029;-61
2023/09/07 11:26:29;;;;;;;8.20;7.07;;;27.20;88.50;;;;;;5000766;28;20226;-53
2023/09/07 11:29:16;;;;;;;12.43;7.15;;;27.20;87.40;;;;;;5011033;28;20029;-54
2023/09/07 11:32:10;;;;;;;8.25;7.45;;;27.20;88.40;;;;;;5029494;28;20029;-57
2023/09/07 11:34:55;;;;;;;8.77;7.00;;;27.30;88.30;;;;;;5032796;28;20026;-54
2023/09/07 11:37:42;;;;;;;7.70;6.95;;;27.40;88.10;;;;;;5031724;28;20501;-53
2023/09/07 11:40:28;;;;;;;8.82;7.35;;;27.40;87.40;;;;;;5032853;28;20033;-59
2023/09/07 11:43:16;;;;;;;8.48;6.93;;;27.50;86.60;;;;;;5032320;28;20037;-59
2023/09/07 11:46:03;;;;;;;8.27;7.40;;;27.40;85.90;;;;;;5033855;28;20033;-57
2023/09/07 11:48:49;;;;;;;8.05;6.95;;;27.50;86.30;;;;;;5033050;28;20036;-56
2023/09/07 11:51:35;;;;;;;8.05;7.03;;;27.50;86.10;;;;;;5033610;28;20087;-54
2023/09/07 11:54:21;;;;;;;7.80;7.00;;;27.40;85.70;;;;;;5033382;28;20053;-59
2023/09/07 11:57:07;;;;;;;8.75;6.78;;;27.50;85.90;;;;;;5031785;28;20028;-58
2023/09/07 11:59:53;;;;;;;10.75;5.97;;;27.40;85.50;;;;;;5031724;28;20116;-57
2023/09/07 12:02:39;;;;;;;9.48;7.32;;;27.50;85.40;;;;;;5032985;28;20431;-58
2023/09/07 12:05:25;;;;;;;12.20;6.82;;;27.50;85.00;;;;;;5033307;28;20029;-58
2023/09/07 12:08:11;;;;;;;7.35;6.65;;;27.50;85.30;;;;;;5032679;28;20029;-57
2023/09/07 12:10:57;;;;;;;7.53;6.70;;;27.60;85.50;;;;;;5018063;28;20043;-57
2023/09/07 12:13:43;;;;;;;9.45;7.30;;;27.60;85.00;;;;;;5033521;28;20025;-58
2023/09/07 12:16:29;;;;;;;9.57;7.20;;;27.70;84.10;;;;;;5032193;28;20228;-56
2023/09/07 12:19:15;;;;;;;9.00;6.57;;;27.80;83.20;;;;;;5033225;28;20080;-56
2023/09/07 12:22:00;;;;;;;6.68;5.95;;;27.90;83.30;;;;;;5033164;28;20029;-53
2023/09/07 12:24:46;;;;;;;12.52;6.63;;;28.00;82.90;;;;;;5013021;28;20401;-56
2023/09/07 12:27:34;;;;;;;12.38;11.18;;;28.10;82.40;;;;;;5021105;28;20057;-55
2023/09/07 12:30:22;;;;;;;11.50;8.88;;;28.20;82.00;;;;;;5028968;28;20018;-56
2023/09/07 12:33:07;;;;;;;6.70;6.07;;;28.20;81.80;;;;;;5012883;28;20418;-56
2023/09/07 12:35:53;;;;;;;8.02;6.15;;;28.30;81.40;;;;;;5027415;28;20072;-61
2023/09/07 12:38:39;;;;;;;7.72;6.60;;;28.30;81.00;;;;;;5031580;28;20025;-54
2023/09/07 12:41:25;;;;;;;8.05;6.85;;;28.40;81.10;;;;;;5018056;28;20025;-58
2023/09/07 12:44:12;;;;;;;8.68;6.82;;;28.50;80.60;;;;;;5031377;28;20037;-60
2023/09/07 12:46:58;;;;;;;6.85;6.15;;;28.50;80.00;;;;;;5031945;28;20029;-56
2023/09/07 12:49:44;;;;;;;12.63;6.47;;;28.60;79.60;;;;;;5031264;28;20497;-58
2023/09/07 12:52:31;;;;;;;8.70;6.05;;;28.70;79.40;;;;;;5031133;28;20034;-57
2023/09/07 12:55:18;;;;;;;7.63;6.65;;;28.70;79.20;;;;;;5031441;28;20029;-58
2023/09/07 12:58:04;;;;;;;10.85;6.38;;;28.60;78.90;;;;;;5018490;28;20026;-56
2023/09/07 13:00:51;;;;;;;7.10;5.78;;;28.80;78.90;;;;;;5013648;28;20057;-59
2023/09/07 13:03:37;;;;;;;7.38;6.20;;;28.90;78.50;;;;;;5030522;28;20053;-56
2023/09/07 13:06:23;;;;;;;9.07;6.20;;;29.10;78.20;;;;;;5030995;28;20026;-55
2023/09/07 13:09:11;;;;;;;9.80;6.40;;;29.20;77.80;;;;;;5017046;28;20028;-60
2023/09/07 13:11:57;;;;;;;8.50;6.50;;;29.30;77.40;;;;;;5030758;28;20026;-57
2023/09/07 13:14:43;;;;;;;7.20;6.50;;;29.40;77.60;;;;;;5031334;28;20030;-56
2023/09/07 13:17:29;;;;;;;8.70;6.55;;;29.60;77.30;;;;;;5030843;28;20079;-58
2023/09/07 13:20:16;;;;;;;9.75;6.43;;;29.70;77.30;;;;;;5017509;28;20021;-61
2023/09/07 13:23:02;;;;;;;7.78;6.80;;;29.80;77.30;;;;;;5030819;28;20091;-59
2023/09/07 13:25:48;;;;;;;8.23;6.38;;;29.80;77.00;;;;;;5010892;28;20081;-57
2023/09/07 13:28:34;;;;;;;11.02;6.57;;;29.80;76.50;;;;;;5020309;28;20022;-56
2023/09/07 13:31:20;;;;;;;7.75;6.20;;;29.80;75.90;;;;;;5013250;28;20498;-60
2023/09/07 13:34:05;;;;;;;6.60;6.00;;;29.80;75.90;;;;;;5012503;28;20561;-57
2023/09/07 13:40:33;;;;;;;8.38;6.47;;;30.10;76.20;;;;;;5031422;28;20024;-56
2023/09/07 13:43:19;;;;;;;8.77;6.43;;;30.30;76.50;;;;;;5031022;28;20516;-58
2023/09/07 13:46:05;;;;;;;7.57;6.03;;;30.50;75.70;;;;;;5030790;28;20113;-55
2023/09/07 13:48:51;;;;;;;8.48;6.30;;;30.60;75.20;;;;;;5030404;28;20040;-59
2023/09/07 13:51:39;;;;;;;8.65;6.15;;;30.60;74.50;;;;;;5017462;28;20079;-56
2023/09/07 13:54:25;;;;;;;6.45;5.85;;;30.60;73.90;;;;;;5031423;28;20064;-63
2023/09/07 13:57:11;;;;;;;7.05;6.25;;;30.80;73.70;;;;;;5011003;28;20022;-60
2023/09/07 13:59:57;;;;;;;6.75;5.78;;;30.80;73.70;;;;;;5009675;28;20026;-59
2023/09/07 14:02:43;;;;;;;6.63;5.78;;;30.90;73.60;;;;;;5010135;28;20052;-60
2023/09/07 14:05:29;;;;;;;9.10;5.70;;;31.00;74.00;;;;;;5010038;28;20744;-59
2023/09/07 14:08:15;;;;;;;8.07;5.82;;;31.20;73.60;;;;;;5008790;28;20493;-58
2023/09/07 14:11:01;;;;;;;8.90;5.90;;;31.10;73.00;;;;;;5009702;28;20038;-59
2023/09/07 14:13:51;;;;;;;10.95;5.57;;;31.20;72.90;;;;;;5010586;28;20417;-62
2023/09/07 14:16:36;;;;;;;15.90;12.13;;;31.30;72.70;;;;;;5009201;28;20068;-55
2023/09/07 14:19:22;;;;;;;11.25;7.20;;;31.30;73.30;;;;;;5011993;28;20029;-53